Time;durP1;ratioP1;P1;durP2;ratioP2;P2;SDS_P1;SDS_P2;PMS_P1;PMS_P2;Temp;Humidity;BMP_temperature;BMP_pressure;BME280_temperature;BME280_humidity;BME280_pressure;Samples;Min_cycle;Max_cycle;Signal;HPM_P1;HPM_P2
2023/09/27 00:01:51;;;;;;;;;;;25.40;72.10;;;;;;5109041;28;19950;-50
2023/09/27 00:04:17;;;;;;;;;;;25.40;72.20;;;;;;5107160;28;19911;-53
2023/09/27 00:06:43;;;;;;;;;;;25.40;72.40;;;;;;5119534;28;19916;-49
2023/09/27 00:09:09;;;;;;;;;;;25.40;72.30;;;;;;5125758;28;19922;-50
2023/09/27 00:11:35;;;;;;;;;;;25.40;72.40;;;;;;5124607;28;19907;-50
2023/09/27 00:14:01;;;;;;;;;;;25.40;72.70;;;;;;5125158;27;19919;-53
2023/09/27 00:16:27;;;;;;;;;;;25.40;73.00;;;;;;5117163;28;19933;-50
2023/09/27 00:18:53;;;;;;;;;;;25.40;73.40;;;;;;5120574;27;19986;-53
2023/09/27 00:21:19;;;;;;;;;;;25.40;73.50;;;;;;5124307;28;20639;-51
2023/09/27 00:23:45;;;;;;;;;;;25.40;73.50;;;;;;5117923;28;19930;-50
2023/09/27 00:26:11;;;;;;;;;;;25.40;73.70;;;;;;5124690;28;19911;-53
2023/09/27 00:28:37;;;;;;;;;;;25.40;73.70;;;;;;5124037;28;19911;-50
2023/09/27 00:31:04;;;;;;;;;;;25.40;73.60;;;;;;5124624;28;20287;-50
2023/09/27 00:33:30;;;;;;;;;;;25.40;73.60;;;;;;5124842;27;19915;-52
2023/09/27 00:35:56;;;;;;;;;;;25.40;73.60;;;;;;5124569;28;19919;-49
2023/09/27 00:38:22;;;;;;;;;;;25.40;73.50;;;;;;5123088;28;19980;-50
2023/09/27 00:40:48;;;;;;;;;;;25.40;73.50;;;;;;5123477;28;19982;-51
2023/09/27 00:43:30;;;;;;;;;;;25.40;73.50;;;;;;5124821;28;19911;-53
2023/09/27 00:46:14;;;;;;;;;;;25.40;73.50;;;;;;5118087;28;19975;-53
2023/09/27 00:48:40;;;;;;;;;;;25.40;73.50;;;;;;5124793;27;19918;-50
2023/09/27 00:51:06;;;;;;;;;;;25.30;73.30;;;;;;5102869;28;19912;-49
2023/09/27 00:53:33;;;;;;;;;;;25.40;73.50;;;;;;5122566;28;19941;-49
2023/09/27 00:56:00;;;;;;;;;;;25.40;73.50;;;;;;5124518;28;19965;-51
2023/09/27 00:58:26;;;;;;;;;;;25.30;73.40;;;;;;5117982;27;19923;-52
2023/09/27 01:00:52;;;;;;;;;;;25.30;73.40;;;;;;5115312;28;20322;-49
2023/09/27 01:03:18;;;;;;;;;;;25.30;73.30;;;;;;5089032;27;19919;-51
2023/09/27 01:05:44;;;;;;;;;;;25.30;73.30;;;;;;5116696;27;19982;-49
2023/09/27 01:08:10;;;;;;;;;;;25.30;73.20;;;;;;5135321;27;19951;-50
2023/09/27 01:10:36;;;;;;;;;;;25.30;73.20;;;;;;5123769;28;19907;-51
2023/09/27 01:13:02;;;;;;;;;;;25.30;73.20;;;;;;5123537;28;19922;-50
2023/09/27 01:15:28;;;;;;;;;;;25.30;73.20;;;;;;5116408;27;19957;-52
2023/09/27 01:17:54;;;;;;;;;;;25.30;73.10;;;;;;5124185;28;20409;-54
2023/09/27 01:20:20;;;;;;;;;;;25.30;73.10;;;;;;5124331;28;19911;-51
2023/09/27 01:22:52;;;;;;;;;;;25.30;73.10;;;;;;5122151;28;19911;-51
2023/09/27 01:25:18;;;;;;;;;;;25.30;73.10;;;;;;5123524;28;19966;-50
2023/09/27 01:27:44;;;;;;;;;;;25.30;73.30;;;;;;5105530;28;19911;-50
2023/09/27 01:30:10;;;;;;;;;;;25.30;73.20;;;;;;5123318;28;19953;-50
2023/09/27 01:32:36;;;;;;;;;;;25.30;73.30;;;;;;5122832;28;19935;-52
2023/09/27 01:35:03;;;;;;;;;;;25.30;73.20;;;;;;5124907;27;19919;-49
2023/09/27 01:37:30;;;;;;;;;;;25.20;73.10;;;;;;5116079;28;19923;-48
2023/09/27 01:39:58;;;;;;;;;;;25.30;73.00;;;;;;5135540;27;19912;-52
2023/09/27 01:42:23;;;;;;;;;;;25.30;72.90;;;;;;5120660;28;19908;-52
2023/09/27 01:44:49;;;;;;;;;;;25.30;72.90;;;;;;5123239;28;20368;-50
2023/09/27 01:47:15;;;;;;;;;;;25.20;72.70;;;;;;5123181;28;19912;-50
2023/09/27 01:49:41;;;;;;;;;;;25.20;72.70;;;;;;5122714;28;19942;-50
2023/09/27 01:52:07;;;;;;;;;;;25.20;72.70;;;;;;5121842;28;19911;-49
2023/09/27 01:54:33;;;;;;;;;;;25.20;72.60;;;;;;5122838;28;19936;-51
2023/09/27 01:56:59;;;;;;;;;;;25.20;72.70;;;;;;5123585;27;19923;-50
2023/09/27 01:59:25;;;;;;;;;;;25.20;72.70;;;;;;5123132;28;19919;-49
2023/09/27 02:01:50;;;;;;;;;;;25.20;72.70;;;;;;5123167;28;19908;-52
2023/09/27 02:04:16;;;;;;;;;;;25.20;72.80;;;;;;5130296;27;19907;-49
2023/09/27 02:06:42;;;;;;;;;;;25.20;72.90;;;;;;5122141;28;20006;-50
2023/09/27 02:09:08;;;;;;;;;;;25.20;72.90;;;;;;5121473;28;19922;-52
2023/09/27 02:11:34;;;;;;;;;;;25.20;72.70;;;;;;5122286;28;19951;-51
2023/09/27 02:14:03;;;;;;;;;;;25.20;72.70;;;;;;5122803;28;19922;-51
2023/09/27 02:16:31;;;;;;;;;;;25.20;72.60;;;;;;5123296;28;19911;-50
2023/09/27 02:18:57;;;;;;;;;;;25.20;72.50;;;;;;5136091;27;19923;-50
2023/09/27 02:21:23;;;;;;;;;;;25.20;72.30;;;;;;5120583;28;19911;-50
2023/09/27 02:23:49;;;;;;;;;;;25.20;72.40;;;;;;5121495;28;19944;-50
2023/09/27 02:26:15;;;;;;;;;;;25.20;72.40;;;;;;5123136;28;19940;-50
2023/09/27 02:28:43;;;;;;;;;;;25.20;72.40;;;;;;5122335;28;19911;-48
2023/09/27 02:31:10;;;;;;;;;;;25.20;72.40;;;;;;5122939;28;19951;-50
2023/09/27 02:33:37;;;;;;;;;;;25.10;72.30;;;;;;5122868;28;19922;-50
2023/09/27 02:36:03;;;;;;;;;;;25.20;72.60;;;;;;5128786;28;20386;-52
2023/09/27 02:38:29;;;;;;;;;;;25.20;72.60;;;;;;5122630;28;19915;-52
2023/09/27 02:40:55;;;;;;;;;;;25.20;72.60;;;;;;5122482;28;19912;-48
2023/09/27 02:43:21;;;;;;;;;;;25.10;72.50;;;;;;5122043;28;19912;-51
2023/09/27 02:45:49;;;;;;;;;;;25.10;72.50;;;;;;5122041;28;19947;-48
2023/09/27 02:48:15;;;;;;;;;;;25.10;72.50;;;;;;5122567;28;19908;-50
2023/09/27 02:50:46;;;;;;;;;;;25.10;72.40;;;;;;5127842;28;19970;-51
2023/09/27 02:53:13;;;;;;;;;;;25.10;72.30;;;;;;5120453;28;19992;-49
2023/09/27 02:55:39;;;;;;;;;;;25.10;72.30;;;;;;5121583;28;19986;-49
2023/09/27 02:58:05;;;;;;;;;;;25.10;72.30;;;;;;5117133;28;19926;-52
2023/09/27 03:00:33;;;;;;;;;;;25.10;72.40;;;;;;5121926;28;19907;-49
2023/09/27 03:03:01;;;;;;;;;;;25.10;72.40;;;;;;5125917;28;19916;-48
2023/09/27 03:05:28;;;;;;;;;;;25.10;72.40;;;;;;5124415;27;19918;-50
2023/09/27 03:07:53;;;;;;;;;;;25.10;72.40;;;;;;5121364;28;20457;-50
2023/09/27 03:10:19;;;;;;;;;;;25.10;72.40;;;;;;5141380;27;19939;-49
2023/09/27 03:12:51;;;;;;;;;;;25.10;72.50;;;;;;5116222;28;20370;-48
2023/09/27 03:15:17;;;;;;;;;;;25.10;72.50;;;;;;5122577;28;19915;-49
2023/09/27 03:17:44;;;;;;;;;;;25.10;72.50;;;;;;5106627;28;19914;-48
2023/09/27 03:20:15;;;;;;;;;;;25.10;73.20;;;;;;5129823;27;19918;-50
2023/09/27 03:22:48;;;;;;;;;;;25.00;72.30;;;;;;5120045;28;19911;-51
2023/09/27 03:25:14;;;;;;;;;;;25.00;72.40;;;;;;5125708;28;19911;-50
2023/09/27 03:27:40;;;;;;;;;;;25.00;72.30;;;;;;5123725;28;19946;-49
2023/09/27 03:30:06;;;;;;;;;;;25.00;72.30;;;;;;5119956;28;19915;-51
2023/09/27 03:32:32;;;;;;;;;;;25.00;72.30;;;;;;5121913;28;19911;-49
2023/09/27 03:34:58;;;;;;;;;;;25.00;72.30;;;;;;5125440;27;19923;-50
2023/09/27 03:37:24;;;;;;;;;;;25.00;72.40;;;;;;5123893;28;19912;-50
2023/09/27 03:39:52;;;;;;;;;;;25.00;72.40;;;;;;5125657;28;19918;-51
2023/09/27 03:42:21;;;;;;;;;;;25.00;72.30;;;;;;5125184;28;19964;-49
2023/09/27 03:44:48;;;;;;;;;;;25.00;72.30;;;;;;5124637;28;19918;-53
2023/09/27 03:47:15;;;;;;;;;;;25.00;72.40;;;;;;5118820;28;19912;-53
2023/09/27 03:49:41;;;;;;;;;;;25.00;72.40;;;;;;5123126;28;19920;-49
2023/09/27 03:52:07;;;;;;;;;;;25.00;72.40;;;;;;5123220;28;19978;-49
2023/09/27 03:54:33;;;;;;;;;;;25.00;72.40;;;;;;5124196;28;19919;-53
2023/09/27 03:56:59;;;;;;;;;;;25.00;72.40;;;;;;5125635;28;19984;-49
2023/09/27 03:59:24;;;;;;;;;;;25.00;72.50;;;;;;5125778;27;20009;-48
2023/09/27 04:01:51;;;;;;;;;;;25.00;72.40;;;;;;5115145;28;20034;-47
2023/09/27 04:04:20;;;;;;;;;;;25.00;72.40;;;;;;5129912;27;19942;-50
2023/09/27 04:06:46;;;;;;;;;;;25.00;72.40;;;;;;5120124;28;19919;-48
2023/09/27 04:09:12;;;;;;;;;;;25.00;72.40;;;;;;5124608;28;19908;-49
2023/09/27 04:11:38;;;;;;;;;;;25.00;72.40;;;;;;5121665;27;19911;-49
2023/09/27 04:14:05;;;;;;;;;;;25.00;72.40;;;;;;5105099;28;19945;-49
2023/09/27 04:16:32;;;;;;;;;;;25.00;72.40;;;;;;5116257;28;19912;-48
2023/09/27 04:18:58;;;;;;;;;;;25.00;72.50;;;;;;5102021;28;19997;-50
2023/09/27 04:21:25;;;;;;;;;;;24.90;72.50;;;;;;5108086;28;19912;-50
2023/09/27 04:23:57;;;;;;;;;;;24.90;72.40;;;;;;5116376;28;19994;-51
2023/09/27 04:26:26;;;;;;;;;;;24.90;72.30;;;;;;5125124;28;20324;-49
2023/09/27 04:28:52;;;;;;;;;;;24.90;72.30;;;;;;5109135;28;19911;-47
2023/09/27 04:31:18;;;;;;;;;;;24.90;72.30;;;;;;5124342;28;19933;-52
2023/09/27 04:33:44;;;;;;;;;;;24.90;72.40;;;;;;5117589;28;19916;-51
2023/09/27 04:36:17;;;;;;;;;;;24.90;72.40;;;;;;5118170;27;19912;-49
2023/09/27 04:38:46;;;;;;;;;;;24.90;72.40;;;;;;5115652;27;19919;-53
2023/09/27 04:41:16;;;;;;;;;;;24.90;72.30;;;;;;5118140;28;20028;-51
2023/09/27 04:43:42;;;;;;;;;;;24.90;72.40;;;;;;5115990;28;19994;-51
2023/09/27 04:46:11;;;;;;;;;;;24.90;72.40;;;;;;5123756;28;20282;-50
2023/09/27 04:48:37;;;;;;;;;;;24.90;72.40;;;;;;5121745;28;19912;-53
2023/09/27 04:51:03;;;;;;;;;;;24.90;72.40;;;;;;5123387;27;19964;-51
2023/09/27 04:53:30;;;;;;;;;;;24.90;72.40;;;;;;5122182;28;20644;-52
2023/09/27 04:55:56;;;;;;;;;;;24.80;72.50;;;;;;5109926;27;19933;-51
2023/09/27 04:58:22;;;;;;;;;;;24.90;72.50;;;;;;5117139;28;19955;-50
2023/09/27 05:00:48;;;;;;;;;;;24.80;72.60;;;;;;5111191;28;20372;-52
2023/09/27 05:03:14;;;;;;;;;;;24.80;72.60;;;;;;5109914;27;20697;-52
2023/09/27 05:05:40;;;;;;;;;;;24.80;72.60;;;;;;5114430;28;19915;-51
2023/09/27 05:08:05;;;;;;;;;;;24.80;72.60;;;;;;5127540;27;19904;-54
2023/09/27 05:10:31;;;;;;;;;;;24.80;72.70;;;;;;5118451;28;19915;-52
2023/09/27 05:12:57;;;;;;;;;;;24.80;72.70;;;;;;5129780;27;19911;-54
2023/09/27 05:15:24;;;;;;;;;;;24.80;72.60;;;;;;5123459;28;19957;-53
2023/09/27 05:17:50;;;;;;;;;;;24.80;72.70;;;;;;5119566;28;19912;-53
2023/09/27 05:20:16;;;;;;;;;;;24.80;72.70;;;;;;5122404;28;19918;-52
2023/09/27 05:22:42;;;;;;;;;;;24.80;72.70;;;;;;5105424;28;20433;-53
2023/09/27 05:25:08;;;;;;;;;;;24.80;72.80;;;;;;5115778;28;19919;-50
2023/09/27 05:27:34;;;;;;;;;;;24.80;72.80;;;;;;5120042;28;19911;-52
2023/09/27 05:30:00;;;;;;;;;;;24.80;72.80;;;;;;5122532;27;19914;-49
2023/09/27 05:32:27;;;;;;;;;;;24.80;72.90;;;;;;5122776;28;19915;-51
2023/09/27 05:34:53;;;;;;;;;;;24.80;72.90;;;;;;5119863;28;19915;-53
2023/09/27 05:37:19;;;;;;;;;;;24.80;72.90;;;;;;5123721;28;19937;-52
2023/09/27 05:39:45;;;;;;;;;;;24.80;72.90;;;;;;5123309;28;19908;-53
2023/09/27 05:42:11;;;;;;;;;;;24.80;72.90;;;;;;5123737;28;19994;-53
2023/09/27 05:44:36;;;;;;;;;;;24.80;72.90;;;;;;5121644;28;19985;-53
2023/09/27 05:47:03;;;;;;;;;;;24.70;72.90;;;;;;5122200;28;19918;-53
2023/09/27 05:49:31;;;;;;;;;;;24.80;72.90;;;;;;5122565;28;19912;-53
2023/09/27 05:51:57;;;;;;;;;;;24.80;72.80;;;;;;5123691;28;19966;-52
2023/09/27 05:54:23;;;;;;;;;;;24.70;72.90;;;;;;5122597;28;19919;-53
2023/09/27 05:56:51;;;;;;;;;;;24.70;72.90;;;;;;5115247;27;19955;-51
2023/09/27 05:59:17;;;;;;;;;;;24.70;72.90;;;;;;5121037;28;19922;-51
2023/09/27 06:01:44;;;;;;;;;;;24.70;72.90;;;;;;5113546;28;19911;-53
2023/09/27 06:04:10;;;;;;;;;;;24.70;73.00;;;;;;5118271;28;19970;-52
2023/09/27 06:06:36;;;;;;;;;;;24.70;72.90;;;;;;5123699;27;19908;-51
2023/09/27 06:09:05;;;;;;;;;;;24.70;72.90;;;;;;5122374;28;19933;-52
2023/09/27 06:11:34;;;;;;;;;;;24.70;73.00;;;;;;5122297;27;19911;-51
2023/09/27 06:14:00;;;;;;;;;;;24.70;72.90;;;;;;5122995;28;19915;-54
2023/09/27 06:16:26;;;;;;;;;;;24.70;73.00;;;;;;5121707;28;19950;-54
2023/09/27 06:18:52;;;;;;;;;;;24.70;73.00;;;;;;5118934;28;19912;-53
2023/09/27 06:21:17;;;;;;;;;;;24.70;72.90;;;;;;5103336;28;20438;-54
2023/09/27 06:23:43;;;;;;;;;;;24.70;72.90;;;;;;5122281;28;19918;-53
2023/09/27 06:26:09;;;;;;;;;;;24.70;72.90;;;;;;5122321;28;19915;-54
2023/09/27 06:28:38;;;;;;;;;;;24.70;72.90;;;;;;5137639;27;19907;-53
2023/09/27 06:31:06;;;;;;;;;;;24.60;72.80;;;;;;5122776;28;20652;-53
2023/09/27 06:33:39;;;;;;;;;;;24.60;72.80;;;;;;5122758;28;19934;-52
2023/09/27 06:36:08;;;;;;;;;;;24.60;72.90;;;;;;5105711;28;19912;-51
2023/09/27 06:38:34;;;;;;;;;;;24.60;72.90;;;;;;5127697;27;19909;-49
2023/09/27 06:41:01;;;;;;;;;;;24.60;72.90;;;;;;5120203;27;19918;-54
2023/09/27 06:43:29;;;;;;;;;;;24.60;73.00;;;;;;5125882;28;19914;-50
2023/09/27 06:45:55;;;;;;;;;;;24.60;73.00;;;;;;5120305;28;19908;-50
2023/09/27 06:48:21;;;;;;;;;;;24.60;72.90;;;;;;5126455;28;19914;-52
2023/09/27 06:50:48;;;;;;;;;;;24.60;73.00;;;;;;5106981;28;19912;-49
2023/09/27 06:53:14;;;;;;;;;;;24.60;73.00;;;;;;5127978;27;19922;-50
2023/09/27 06:55:41;;;;;;;;;;;24.60;73.00;;;;;;5125772;28;19989;-48
2023/09/27 06:58:07;;;;;;;;;;;24.60;73.00;;;;;;5126427;28;19969;-51
2023/09/27 07:00:33;;;;;;;;;;;24.60;73.00;;;;;;5122818;28;19960;-50
2023/09/27 07:02:59;;;;;;;;;;;24.60;73.00;;;;;;5126031;28;19954;-50
2023/09/27 07:05:26;;;;;;;;;;;24.60;73.10;;;;;;5125891;28;19912;-52
2023/09/27 07:07:53;;;;;;;;;;;24.60;73.00;;;;;;5109666;28;19933;-51
2023/09/27 07:10:19;;;;;;;;;;;24.60;73.00;;;;;;5140796;27;19907;-49
2023/09/27 07:12:46;;;;;;;;;;;24.60;73.00;;;;;;5119802;28;20697;-50
2023/09/27 07:15:13;;;;;;;;;;;24.50;73.00;;;;;;5125911;28;19975;-49
2023/09/27 07:17:43;;;;;;;;;;;24.50;72.90;;;;;;5125727;28;19947;-55
2023/09/27 07:20:17;;;;;;;;;;;24.50;72.90;;;;;;5141443;27;19916;-48
2023/09/27 07:22:44;;;;;;;;;;;24.50;73.00;;;;;;5135757;27;19915;-50
2023/09/27 07:25:16;;;;;;;;;;;24.50;72.90;;;;;;5126414;28;19923;-49
2023/09/27 07:27:43;;;;;;;;;;;24.50;72.90;;;;;;5124317;28;20743;-48
2023/09/27 07:30:14;;;;;;;;;;;24.50;73.00;;;;;;5120700;28;19915;-53
2023/09/27 07:32:40;;;;;;;;;;;24.50;72.90;;;;;;5125305;28;19922;-49
2023/09/27 07:35:10;;;;;;;;;;;24.50;72.90;;;;;;5125634;28;19939;-50
2023/09/27 07:37:39;;;;;;;;;;;24.50;72.90;;;;;;5119327;27;19907;-48
2023/09/27 07:40:11;;;;;;;;;;;24.50;73.00;;;;;;5120453;28;19911;-48
2023/09/27 07:42:43;;;;;;;;;;;24.50;73.00;;;;;;5124883;28;19911;-47
2023/09/27 07:45:22;;;;;;;;;;;24.50;73.00;;;;;;5120359;28;19923;-47
2023/09/27 07:47:50;;;;;;;;;;;24.50;73.00;;;;;;5123615;28;19907;-46
2023/09/27 07:50:17;;;;;;;;;;;24.50;73.10;;;;;;5125520;28;19912;-48
2023/09/27 07:52:44;;;;;;;;;;;24.50;73.10;;;;;;5125115;27;19978;-48
2023/09/27 07:55:10;;;;;;;;;;;24.50;73.10;;;;;;5125756;28;20265;-47
2023/09/27 07:57:36;;;;;;;;;;;24.50;73.10;;;;;;5124999;28;19937;-46
2023/09/27 08:00:08;;;;;;;;;;;24.50;73.20;;;;;;5125134;28;19912;-50
2023/09/27 08:02:34;;;;;;;;;;;24.40;73.10;;;;;;5117812;28;19912;-48
2023/09/27 08:05:09;;;;;;;;;;;24.40;73.10;;;;;;5125576;28;19929;-47
2023/09/27 08:07:38;;;;;;;;;;;24.40;73.20;;;;;;5121798;27;19912;-46
2023/09/27 08:10:04;;;;;;;;;;;24.40;73.10;;;;;;5107158;28;19911;-47
2023/09/27 08:12:31;;;;;;;;;;;24.40;73.10;;;;;;5117392;28;19914;-47
2023/09/27 08:14:58;;;;;;;;;;;24.40;73.10;;;;;;5125367;28;19915;-47
2023/09/27 08:17:24;;;;;;;;;;;24.40;73.10;;;;;;5124390;28;19915;-48
2023/09/27 08:19:50;;;;;;;;;;;24.40;73.20;;;;;;5118838;28;19915;-47
2023/09/27 08:22:16;;;;;;;;;;;24.40;73.10;;;;;;5125775;27;19935;-47
2023/09/27 08:24:42;;;;;;;;;;;24.40;73.10;;;;;;5124536;28;19967;-47
2023/09/27 08:27:08;;;;;;;;;;;24.40;73.10;;;;;;5124749;28;19938;-49
2023/09/27 08:29:34;;;;;;;;;;;24.40;73.20;;;;;;5124079;28;19998;-48
2023/09/27 08:32:00;;;;;;;;;;;24.40;73.10;;;;;;5124782;28;19967;-47
2023/09/27 08:34:27;;;;;;;;;;;24.40;73.20;;;;;;5124073;28;19916;-47
2023/09/27 08:36:53;;;;;;;;;;;24.30;73.10;;;;;;5110615;27;19918;-47
2023/09/27 08:39:20;;;;;;;;;;;24.40;73.20;;;;;;5124346;28;19995;-47
2023/09/27 08:41:46;;;;;;;;;;;24.30;73.10;;;;;;5124332;28;19924;-48
2023/09/27 08:44:11;;;;;;;;;;;24.30;73.10;;;;;;5124334;28;19977;-49
2023/09/27 08:46:38;;;;;;;;;;;24.30;73.10;;;;;;5124398;28;19911;-49
2023/09/27 08:49:04;;;;;;;;;;;24.30;73.10;;;;;;5124610;28;19913;-49
2023/09/27 08:51:30;;;;;;;;;;;24.30;73.10;;;;;;5106330;28;19922;-48
2023/09/27 08:53:56;;;;;;;;;;;24.30;73.20;;;;;;5117786;28;19928;-53
2023/09/27 08:56:24;;;;;;;;;;;24.30;73.10;;;;;;5124153;28;19916;-53
2023/09/27 08:58:50;;;;;;;;;;;24.30;73.10;;;;;;5116997;28;19916;-48
2023/09/27 09:01:16;;;;;;;;;;;24.30;73.10;;;;;;5101461;28;19914;-49
2023/09/27 09:03:42;;;;;;;;;;;24.30;73.10;;;;;;5124136;27;19919;-48
2023/09/27 09:06:11;;;;;;;;;;;24.30;73.10;;;;;;5105752;28;19907;-48
2023/09/27 09:08:40;;;;;;;;;;;24.30;73.00;;;;;;5106010;28;20304;-47
2023/09/27 09:11:08;;;;;;;;;;;24.30;73.10;;;;;;5123324;28;19943;-48
2023/09/27 09:14:04;;;;;;;;;;;24.30;73.10;;;;;;5123855;28;19971;-49
2023/09/27 09:16:39;;;;;;;;;;;24.30;73.20;;;;;;5105075;28;19975;-47
2023/09/27 09:19:24;;;;;;;;;;;24.20;73.10;;;;;;5124564;28;19958;-49
2023/09/27 09:22:03;;;;;;;;;;;24.20;73.20;;;;;;5123620;28;20431;-48
2023/09/27 09:24:29;;;;;;;;;;;24.20;73.20;;;;;;5123702;28;19958;-46
2023/09/27 09:27:08;;;;;;;;;;;24.20;73.20;;;;;;5113788;27;19912;-48
2023/09/27 09:29:46;;;;;;;;;;;24.20;73.30;;;;;;5122801;27;20625;-47
2023/09/27 09:32:13;;;;;;;;;;;24.20;73.30;;;;;;5123277;28;19907;-49
2023/09/27 09:34:42;;;;;;;;;;;24.20;73.30;;;;;;5122984;28;19920;-49
2023/09/27 09:37:18;;;;;;;;;;;24.20;73.20;;;;;;5123553;28;19911;-50
2023/09/27 09:39:44;;;;;;;;;;;24.20;73.30;;;;;;5121569;28;19913;-49
2023/09/27 09:42:10;;;;;;;;;;;24.20;73.20;;;;;;5123433;28;19919;-49
2023/09/27 09:44:39;;;;;;;;;;;24.20;73.20;;;;;;5116243;28;19904;-47
2023/09/27 09:47:12;;;;;;;;;;;24.20;73.30;;;;;;5123448;28;19919;-49
2023/09/27 09:49:41;;;;;;;;;;;24.20;73.20;;;;;;5091315;28;19914;-48
2023/09/27 09:52:08;;;;;;;;;;;24.20;73.20;;;;;;5119239;27;19943;-47
2023/09/27 09:54:37;;;;;;;;;;;24.20;73.20;;;;;;5097659;28;20696;-47
2023/09/27 09:57:06;;;;;;;;;;;24.20;73.30;;;;;;5117702;28;20032;-48
2023/09/27 09:59:39;;;;;;;;;;;24.10;73.30;;;;;;5119315;28;19943;-48
2023/09/27 10:02:11;;;;;;;;;;;24.10;73.30;;;;;;5131559;27;19908;-47
2023/09/27 10:04:37;;;;;;;;;;;24.10;73.30;;;;;;5104821;28;19911;-47
2023/09/27 10:07:03;;;;;;;;;;;24.10;73.30;;;;;;5103326;28;19993;-47
2023/09/27 10:09:29;;;;;;;;;;;24.10;73.40;;;;;;5131496;27;20419;-50
2023/09/27 10:11:55;;;;;;;;;;;24.10;73.30;;;;;;5127176;27;19918;-49
2023/09/27 10:14:21;;;;;;;;;;;24.10;73.40;;;;;;5122522;28;19916;-47
2023/09/27 10:16:48;;;;;;;;;;;24.10;73.40;;;;;;5111947;28;19920;-47
2023/09/27 10:19:24;;;;;;;;;;;24.10;73.40;;;;;;5136201;27;20010;-47
2023/09/27 10:22:04;;;;;;;;;;;24.10;73.40;;;;;;5115712;27;20006;-48
2023/09/27 10:24:33;;;;;;;;;;;24.10;73.40;;;;;;5125020;27;20363;-47
2023/09/27 10:26:59;;;;;;;;;;;24.10;73.40;;;;;;5116730;28;19975;-47
2023/09/27 10:29:25;;;;;;;;;;;24.10;73.30;;;;;;5121840;28;19953;-47
2023/09/27 10:31:57;;;;;;;;;;;24.10;73.30;;;;;;5122673;28;19907;-48
2023/09/27 10:34:28;;;;;;;;;;;24.00;73.30;;;;;;5121570;28;19920;-48
2023/09/27 10:36:54;;;;;;;;;;;24.10;73.40;;;;;;5115770;28;19911;-47
2023/09/27 10:39:20;;;;;;;;;;;24.10;73.50;;;;;;5118128;28;19908;-46
2023/09/27 10:41:47;;;;;;;;;;;24.00;73.40;;;;;;5118386;28;19919;-47
2023/09/27 10:44:13;;;;;;;;;;;24.10;73.50;;;;;;5110859;28;19912;-51
2023/09/27 10:46:42;;;;;;;;;;;24.00;73.40;;;;;;5121503;28;19935;-49
2023/09/27 10:49:09;;;;;;;;;;;24.00;73.40;;;;;;5121858;28;19907;-46
2023/09/27 10:51:35;;;;;;;;;;;24.10;73.60;;;;;;5118472;28;19912;-48
2023/09/27 10:54:10;;;;;;;;;;;24.00;73.50;;;;;;5122936;28;19922;-48
2023/09/27 10:56:36;;;;;;;;;;;24.00;73.50;;;;;;5122566;28;19915;-48
2023/09/27 10:59:02;;;;;;;;;;;24.00;73.50;;;;;;5122424;28;19919;-48
2023/09/27 11:01:28;;;;;;;;;;;24.00;73.50;;;;;;5121663;28;19908;-48
2023/09/27 11:04:00;;;;;;;;;;;24.00;73.50;;;;;;5122728;28;19912;-48
2023/09/27 11:06:27;;;;;;;;;;;24.00;73.40;;;;;;5138512;28;19952;-49
2023/09/27 11:09:03;;;;;;;;;;;24.00;73.40;;;;;;5121281;28;19911;-48
2023/09/27 11:11:28;;;;;;;;;;;24.00;73.50;;;;;;5119911;28;19958;-47
2023/09/27 11:13:54;;;;;;;;;;;24.00;73.50;;;;;;5122120;28;19951;-48
2023/09/27 11:16:20;;;;;;;;;;;24.00;73.50;;;;;;5122489;28;19910;-48
2023/09/27 11:18:48;;;;;;;;;;;24.00;73.60;;;;;;5122484;28;19918;-51
2023/09/27 11:21:15;;;;;;;;;;;24.00;73.50;;;;;;5118576;28;19912;-47
2023/09/27 11:23:54;;;;;;;;;;;24.00;73.60;;;;;;5125647;28;19915;-49
2023/09/27 11:26:20;;;;;;;;;;;24.00;73.60;;;;;;5117778;28;19922;-47
2023/09/27 11:29:06;;;;;;;;;;;24.00;73.60;;;;;;5126043;28;20022;-48
2023/09/27 11:31:38;;;;;;;;;;;24.00;73.60;;;;;;5126050;28;19978;-47
2023/09/27 11:34:14;;;;;;;;;;;24.00;73.60;;;;;;5125735;28;19916;-49
2023/09/27 11:36:41;;;;;;;;;;;23.90;73.60;;;;;;5124816;27;19937;-48
2023/09/27 11:39:07;;;;;;;;;;;23.90;73.60;;;;;;5141635;27;19970;-49
2023/09/27 11:41:33;;;;;;;;;;;23.90;73.60;;;;;;5129575;27;19907;-49
2023/09/27 11:43:59;;;;;;;;;;;23.90;73.60;;;;;;5125854;28;19919;-47
2023/09/27 11:46:27;;;;;;;;;;;23.90;73.60;;;;;;5125004;28;19966;-47
2023/09/27 11:48:53;;;;;;;;;;;23.90;73.70;;;;;;5137137;27;19954;-48
2023/09/27 11:51:19;;;;;;;;;;;23.90;73.60;;;;;;5124093;28;19912;-47
2023/09/27 11:53:45;;;;;;;;;;;23.90;73.60;;;;;;5123764;28;19983;-49
2023/09/27 11:56:12;;;;;;;;;;;23.90;73.70;;;;;;5125385;27;19991;-48
2023/09/27 11:58:37;;;;;;;;;;;23.90;73.70;;;;;;5125827;28;19920;-48
2023/09/27 12:01:05;;;;;;;;;;;23.90;73.70;;;;;;5125127;28;19975;-48
2023/09/27 12:03:31;;;;;;;;;;;23.90;73.70;;;;;;5117912;28;19941;-48
2023/09/27 12:05:57;;;;;;;;;;;23.90;73.80;;;;;;5124728;28;19908;-49
2023/09/27 12:08:22;;;;;;;;;;;23.90;73.80;;;;;;5123002;27;20451;-49
2023/09/27 12:10:48;;;;;;;;;;;23.90;73.80;;;;;;5123779;28;19923;-51
2023/09/27 12:13:14;;;;;;;;;;;23.90;73.80;;;;;;5128096;27;19919;-48
2023/09/27 12:15:41;;;;;;;;;;;23.90;73.90;;;;;;5124368;28;19916;-48
2023/09/27 12:18:06;;;;;;;;;;;23.90;73.80;;;;;;5120026;28;19908;-50
2023/09/27 12:20:34;;;;;;;;;;;23.80;73.80;;;;;;5122190;28;19908;-47
2023/09/27 12:22:59;;;;;;;;;;;23.90;73.90;;;;;;5105699;28;19911;-47
2023/09/27 12:25:26;;;;;;;;;;;23.80;73.80;;;;;;5123698;28;20434;-47
2023/09/27 12:27:52;;;;;;;;;;;23.90;73.90;;;;;;5128387;27;20650;-49
2023/09/27 12:30:18;;;;;;;;;;;23.80;73.90;;;;;;5123679;28;19907;-46
2023/09/27 12:32:44;;;;;;;;;;;23.80;73.80;;;;;;5123674;28;20382;-49
2023/09/27 12:35:10;;;;;;;;;;;23.80;73.90;;;;;;5123477;28;19919;-48
2023/09/27 12:37:36;;;;;;;;;;;23.80;73.80;;;;;;5124335;27;19907;-47
2023/09/27 12:40:02;;;;;;;;;;;23.80;73.80;;;;;;5124238;28;19911;-47
2023/09/27 12:42:28;;;;;;;;;;;23.80;73.90;;;;;;5126447;27;19915;-48
2023/09/27 12:44:54;;;;;;;;;;;23.80;73.90;;;;;;5123499;28;19912;-50
2023/09/27 12:47:20;;;;;;;;;;;23.80;74.00;;;;;;5124143;28;19955;-47
2023/09/27 12:49:46;;;;;;;;;;;23.80;74.00;;;;;;5123628;28;20016;-47
2023/09/27 12:52:13;;;;;;;;;;;23.80;74.00;;;;;;5116822;28;19908;-47
2023/09/27 12:54:39;;;;;;;;;;;23.80;74.00;;;;;;5123107;28;19986;-49
2023/09/27 12:57:05;;;;;;;;;;;23.80;74.00;;;;;;5127130;27;19957;-50
2023/09/27 12:59:31;;;;;;;;;;;23.80;74.00;;;;;;5121019;27;20403;-47
2023/09/27 13:01:57;;;;;;;;;;;23.80;74.00;;;;;;5123825;28;19907;-48
2023/09/27 13:04:23;;;;;;;;;;;23.80;74.10;;;;;;5122983;28;19917;-50
2023/09/27 13:06:48;;;;;;;;;;;23.80;74.10;;;;;;5124095;28;19911;-47
2023/09/27 13:09:17;;;;;;;;;;;23.80;74.10;;;;;;5123255;28;19947;-51
2023/09/27 13:11:43;;;;;;;;;;;23.80;74.10;;;;;;5125561;27;19912;-49
2023/09/27 13:14:09;;;;;;;;;;;23.80;74.20;;;;;;5123096;28;19919;-52
2023/09/27 13:16:35;;;;;;;;;;;23.80;74.10;;;;;;5123486;28;19915;-51
2023/09/27 13:19:21;;;;;;;;;;;23.80;74.20;;;;;;5124292;28;19912;-47
2023/09/27 13:21:47;;;;;;;;;;;23.80;74.20;;;;;;5040337;28;19925;-50
2023/09/27 13:24:14;;;;;;;;;;;23.80;74.20;;;;;;5040803;28;19913;-49
2023/09/27 13:26:40;;;;;;;;;;;23.80;74.20;;;;;;5039058;28;19983;-48
2023/09/27 13:29:06;;;;;;;;;;;23.80;74.20;;;;;;5040877;28;19909;-48
2023/09/27 13:31:32;;;;;;;;;;;23.80;74.20;;;;;;5040137;28;19920;-47
2023/09/27 13:33:58;;;;;;;;;;;23.80;74.30;;;;;;5040343;28;19921;-50
2023/09/27 13:36:24;;;;;;;;;;;23.80;74.20;;;;;;5033058;28;19913;-49
2023/09/27 13:38:51;;;;;;;;;;;23.80;74.20;;;;;;5040510;28;19924;-49
2023/09/27 13:41:18;;;;;;;;;;;23.80;74.20;;;;;;5040529;28;19951;-50
2023/09/27 13:43:43;;;;;;;;;;;23.80;74.30;;;;;;5033428;28;19909;-49
2023/09/27 13:46:09;;;;;;;;;;;23.80;74.30;;;;;;5032473;28;19913;-49
2023/09/27 13:48:35;;;;;;;;;;;23.70;74.20;;;;;;5045348;28;19932;-53
2023/09/27 13:51:01;;;;;;;;;;;23.70;74.20;;;;;;5040654;28;19913;-48
2023/09/27 13:53:27;;;;;;;;;;;23.70;74.20;;;;;;5032759;28;20038;-49
2023/09/27 13:55:53;;;;;;;;;;;23.70;74.20;;;;;;5023558;28;19913;-49
2023/09/27 13:58:20;;;;;;;;;;;23.70;74.30;;;;;;5045321;28;19948;-48
2023/09/27 14:00:46;;;;;;;;;;;23.70;74.30;;;;;;5121810;28;19912;-48
2023/09/27 14:03:13;;;;;;;;;;;23.70;74.30;;;;;;5122746;28;19958;-49
2023/09/27 14:05:39;;;;;;;;;;;23.70;74.20;;;;;;5122094;28;19973;-52
2023/09/27 14:08:05;;;;;;;;;;;23.70;74.30;;;;;;5122478;28;19911;-49
2023/09/27 14:10:31;;;;;;;;;;;23.70;74.30;;;;;;5121848;28;20018;-50
2023/09/27 14:12:59;;;;;;;;;;;23.70;74.30;;;;;;5091631;28;20457;-49
2023/09/27 14:15:25;;;;;;;;;;;23.70;74.30;;;;;;5118927;28;19937;-51
2023/09/27 14:17:51;;;;;;;;;;;23.70;74.40;;;;;;5112013;28;19933;-49